createdAt,value
2024-01-26T00:01:04.326Z,6.03
2024-01-26T00:03:33.065Z,4.78
2024-01-26T00:06:02.955Z,9.75
2024-01-26T00:08:32.063Z,6.15
2024-01-26T00:11:00.857Z,10.63
2024-01-26T00:13:30.921Z,9.85
2024-01-26T00:15:59.419Z,7.57
2024-01-26T00:18:29.568Z,14.00
2024-01-26T00:20:58.033Z,4.70
2024-01-26T00:23:26.414Z,8.18
2024-01-26T00:25:54.990Z,6.88
2024-01-26T00:28:23.403Z,5.90
2024-01-26T00:30:53.365Z,11.10
2024-01-26T00:33:21.966Z,15.50
2024-01-26T00:35:50.658Z,6.85
2024-01-26T00:38:19.084Z,8.40
2024-01-26T00:40:47.643Z,5.90
2024-01-26T00:43:16.366Z,5.60
2024-01-26T00:45:44.985Z,6.38
2024-01-26T00:48:14.902Z,7.97
2024-01-26T00:50:43.712Z,8.02
2024-01-26T00:53:12.214Z,10.45
2024-01-26T00:55:40.702Z,10.75
2024-01-26T00:58:09.223Z,7.55
2024-01-26T01:00:37.838Z,8.60
2024-01-26T01:03:06.765Z,13.45
2024-01-26T01:05:36.623Z,16.70
2024-01-26T01:08:06.029Z,6.20
2024-01-26T01:10:34.507Z,8.30
2024-01-26T01:13:05.807Z,10.95
2024-01-26T01:15:35.731Z,6.93
2024-01-26T01:18:04.955Z,9.68
2024-01-26T01:20:33.403Z,6.32
2024-01-26T01:23:03.188Z,16.90
2024-01-26T01:25:31.988Z,12.05
2024-01-26T01:28:00.447Z,8.43
2024-01-26T01:30:28.860Z,7.57
2024-01-26T01:32:57.625Z,11.90
2024-01-26T01:35:26.100Z,14.60
2024-01-26T01:37:54.679Z,4.30
2024-01-26T01:40:25.229Z,8.52
2024-01-26T01:42:53.664Z,5.25
2024-01-26T01:45:22.702Z,5.20
2024-01-26T01:47:51.286Z,6.78
2024-01-26T01:50:19.733Z,6.35
2024-01-26T01:52:49.945Z,11.05
2024-01-26T01:55:18.486Z,8.68
2024-01-26T01:57:51.018Z,8.18
2024-01-26T02:00:19.967Z,8.65
2024-01-26T02:02:50.768Z,5.88
2024-01-26T02:05:20.094Z,4.40
2024-01-26T02:07:52.097Z,13.65
2024-01-26T02:10:21.587Z,8.13
2024-01-26T02:12:51.348Z,5.18
2024-01-26T02:15:20.070Z,8.68
2024-01-26T02:17:48.693Z,8.35
2024-01-26T02:20:17.597Z,10.55
2024-01-26T02:22:46.099Z,5.38
2024-01-26T02:25:16.045Z,12.95
2024-01-26T02:27:44.516Z,7.80
2024-01-26T02:30:14.857Z,7.38
2024-01-26T02:32:43.701Z,8.32
2024-01-26T02:35:13.864Z,10.20
2024-01-26T02:37:42.285Z,8.52
2024-01-26T02:40:13.368Z,9.93
2024-01-26T02:42:43.789Z,9.32
2024-01-26T02:45:12.780Z,10.48
2024-01-26T02:47:41.363Z,4.50
2024-01-26T02:50:11.100Z,5.93
2024-01-26T02:52:39.515Z,10.73
2024-01-26T02:55:08.724Z,12.68
2024-01-26T02:57:36.150Z,7.55
2024-01-26T03:00:08.641Z,6.47
2024-01-26T03:02:37.218Z,6.18
2024-01-26T03:05:07.317Z,9.00
2024-01-26T03:07:35.706Z,4.22
2024-01-26T03:10:04.603Z,7.75
2024-01-26T03:12:34.824Z,3.67
2024-01-26T03:15:03.409Z,6.40
2024-01-26T03:17:33.409Z,10.25
2024-01-26T03:20:02.018Z,9.85
2024-01-26T03:22:30.411Z,7.43
2024-01-26T03:24:58.803Z,11.55
2024-01-26T03:27:28.933Z,8.63
2024-01-26T03:29:57.503Z,9.63
2024-01-26T03:32:26.720Z,8.88
2024-01-26T03:34:56.633Z,5.43
2024-01-26T03:37:25.004Z,6.75
2024-01-26T03:39:54.106Z,6.85
2024-01-26T03:42:22.557Z,7.95
2024-01-26T03:44:51.075Z,8.20
2024-01-26T03:47:19.557Z,5.57
2024-01-26T03:49:48.202Z,7.95
2024-01-26T03:52:18.378Z,18.42
2024-01-26T03:54:46.965Z,7.82
2024-01-26T03:57:15.427Z,7.88
2024-01-26T03:59:44.107Z,15.55
2024-01-26T04:02:12.512Z,10.45
2024-01-26T04:04:41.581Z,8.57
2024-01-26T04:07:11.367Z,7.50
2024-01-26T04:09:41.722Z,7.18
2024-01-26T04:12:10.644Z,6.00
2024-01-26T04:14:39.129Z,7.18
2024-01-26T04:17:07.785Z,7.68
2024-01-26T04:19:36.229Z,7.93
2024-01-26T04:22:04.923Z,7.90
2024-01-26T04:24:33.365Z,7.00
2024-01-26T04:27:04.732Z,6.85
2024-01-26T04:29:33.169Z,11.65
2024-01-26T04:32:01.750Z,10.48
2024-01-26T04:34:30.255Z,10.60
2024-01-26T04:36:58.826Z,7.68
2024-01-26T04:39:27.208Z,6.93
2024-01-26T04:41:55.828Z,9.95
2024-01-26T04:44:25.629Z,12.50
2024-01-26T04:46:56.502Z,8.27
2024-01-26T04:49:25.357Z,6.97
2024-01-26T04:51:54.278Z,7.47
2024-01-26T04:54:23.056Z,7.95
2024-01-26T04:56:51.912Z,10.05
2024-01-26T04:59:20.335Z,5.60
2024-01-26T05:01:50.197Z,4.07
2024-01-26T05:04:18.688Z,8.10
2024-01-26T05:06:47.380Z,12.20
2024-01-26T05:09:16.200Z,5.03
2024-01-26T05:11:44.803Z,9.18
2024-01-26T05:14:13.328Z,9.38
2024-01-26T05:16:41.821Z,5.88
2024-01-26T05:19:12.036Z,6.15
2024-01-26T05:21:43.034Z,5.32
2024-01-26T05:24:11.574Z,8.52
2024-01-26T05:26:41.471Z,7.55
2024-01-26T05:29:09.949Z,11.93
2024-01-26T05:31:41.867Z,10.95
2024-01-26T05:34:12.108Z,11.18
2024-01-26T05:36:44.544Z,9.10
2024-01-26T05:39:13.568Z,7.03
2024-01-26T05:41:42.150Z,8.82
2024-01-26T05:44:10.830Z,12.45
2024-01-26T05:46:39.341Z,14.23
2024-01-26T05:49:09.843Z,9.90
2024-01-26T05:51:40.010Z,7.43
2024-01-26T05:54:08.686Z,4.35
2024-01-26T05:56:41.484Z,6.50
2024-01-26T05:59:10.149Z,7.90
2024-01-26T06:01:38.775Z,5.82
2024-01-26T06:04:07.774Z,6.95
2024-01-26T06:06:36.386Z,8.23
2024-01-26T06:09:06.409Z,9.23
2024-01-26T06:11:35.270Z,7.70
2024-01-26T06:14:03.822Z,7.80
2024-01-26T06:16:32.323Z,7.93
2024-01-26T06:19:04.296Z,7.50
2024-01-26T06:21:33.875Z,9.70
2024-01-26T06:24:02.980Z,11.60
2024-01-26T06:26:32.830Z,4.35
2024-01-26T06:29:01.369Z,10.63
2024-01-26T06:31:30.077Z,6.70
2024-01-26T06:33:58.831Z,10.32
2024-01-26T06:36:27.352Z,4.40
2024-01-26T06:38:55.787Z,6.45
2024-01-26T06:41:25.223Z,6.35
2024-01-26T06:43:54.962Z,10.70
2024-01-26T06:46:24.331Z,7.55
2024-01-26T06:48:53.571Z,7.30
2024-01-26T06:51:22.426Z,6.72
2024-01-26T06:53:50.816Z,4.72
2024-01-26T06:56:19.939Z,10.98
2024-01-26T06:58:48.507Z,5.13
2024-01-26T07:01:18.309Z,9.75
2024-01-26T07:03:47.063Z,5.38
2024-01-26T07:06:16.003Z,6.15
2024-01-26T07:08:45.549Z,9.93
2024-01-26T07:11:15.784Z,8.35
2024-01-26T07:13:44.378Z,11.98
2024-01-26T07:16:12.815Z,8.00
2024-01-26T07:18:42.910Z,7.72
2024-01-26T07:21:11.805Z,9.13
2024-01-26T07:23:42.275Z,6.35
2024-01-26T07:26:11.135Z,4.78
2024-01-26T07:28:39.516Z,8.32
2024-01-26T07:31:07.935Z,6.88
2024-01-26T07:33:36.599Z,6.05
2024-01-26T07:36:07.575Z,7.22
2024-01-26T07:38:36.342Z,14.20
2024-01-26T07:41:05.104Z,7.82
2024-01-26T07:43:33.562Z,15.07
2024-01-26T07:46:02.285Z,14.02
2024-01-26T07:48:30.831Z,8.82
2024-01-26T07:50:59.323Z,5.45
2024-01-26T07:53:29.245Z,12.15
2024-01-26T07:55:57.655Z,4.57
2024-01-26T07:58:26.233Z,15.98
2024-01-26T08:00:54.785Z,10.38
2024-01-26T08:03:23.424Z,13.90
2024-01-26T08:05:52.242Z,8.90
2024-01-26T08:08:20.913Z,9.82
2024-01-26T08:10:51.050Z,10.52
2024-01-26T08:13:19.841Z,6.07
2024-01-26T08:15:48.945Z,15.23
2024-01-26T08:18:17.785Z,9.13
2024-01-26T08:20:46.405Z,8.90
2024-01-26T08:23:15.470Z,10.43
2024-01-26T08:25:44.422Z,7.15
2024-01-26T08:28:14.381Z,12.73
2024-01-26T08:30:43.713Z,8.43
2024-01-26T08:33:12.404Z,8.10
2024-01-26T08:35:41.318Z,11.25
2024-01-26T08:38:10.292Z,8.75
2024-01-26T08:40:38.764Z,12.88
2024-01-26T08:43:07.186Z,14.95
2024-01-26T08:45:37.274Z,15.05
2024-01-26T08:48:07.529Z,16.65
2024-01-26T08:50:37.610Z,16.98
2024-01-26T08:53:06.466Z,11.18
2024-01-26T08:55:35.069Z,12.07
2024-01-26T08:58:03.625Z,12.45
2024-01-26T09:00:32.384Z,8.95
2024-01-26T09:03:02.323Z,12.65
2024-01-26T09:05:31.105Z,14.40
2024-01-26T09:07:59.857Z,17.55
2024-01-26T09:10:28.306Z,7.47
2024-01-26T09:12:56.842Z,17.80
2024-01-26T09:15:25.306Z,8.77
2024-01-26T09:17:54.069Z,10.73
2024-01-26T09:20:23.932Z,15.40
2024-01-26T09:22:52.776Z,21.80
2024-01-26T09:25:21.666Z,9.40
2024-01-26T09:27:50.214Z,8.40
2024-01-26T09:30:20.410Z,12.65
2024-01-26T09:32:51.217Z,13.75
2024-01-26T09:35:20.308Z,14.60
2024-01-26T09:37:50.516Z,13.82
2024-01-26T09:40:20.671Z,12.32
2024-01-26T09:42:49.217Z,15.32
2024-01-26T09:45:19.141Z,11.32
2024-01-26T09:47:52.173Z,13.00
2024-01-26T09:50:23.245Z,12.32
2024-01-26T09:52:53.624Z,11.02
2024-01-26T09:55:22.871Z,11.68
2024-01-26T09:57:53.044Z,15.50
2024-01-26T10:00:22.905Z,7.88
2024-01-26T10:02:51.537Z,11.45
2024-01-26T10:05:20.725Z,14.27
2024-01-26T10:07:49.196Z,11.25
2024-01-26T10:10:19.136Z,8.77
2024-01-26T10:12:47.653Z,10.50
2024-01-26T10:15:18.215Z,10.10
2024-01-26T10:17:54.275Z,14.40
2024-01-26T10:20:24.033Z,21.63
2024-01-26T10:22:54.741Z,8.38
2024-01-26T10:25:25.004Z,7.95
2024-01-26T10:27:53.642Z,9.80
2024-01-26T10:30:22.674Z,11.88
2024-01-26T10:32:53.788Z,6.82
2024-01-26T10:35:25.521Z,11.88
2024-01-26T10:37:54.373Z,12.23
2024-01-26T10:40:25.035Z,9.52
2024-01-26T10:42:55.610Z,7.93
2024-01-26T10:45:24.532Z,12.65
2024-01-26T10:47:55.622Z,12.13
2024-01-26T10:50:24.505Z,18.30
2024-01-26T10:52:56.471Z,8.18
2024-01-26T10:55:28.377Z,8.57
2024-01-26T10:57:57.357Z,5.15
2024-01-26T11:00:27.740Z,7.50
2024-01-26T11:02:57.774Z,6.07
2024-01-26T11:05:26.401Z,4.13
2024-01-26T11:07:55.620Z,8.65
2024-01-26T11:10:30.463Z,6.65
2024-01-26T11:13:03.990Z,7.32
2024-01-26T11:15:33.078Z,7.57
2024-01-26T11:18:01.812Z,12.77
2024-01-26T11:20:32.929Z,13.48
2024-01-26T11:23:03.363Z,14.75
2024-01-26T11:25:38.653Z,13.40
2024-01-26T11:28:09.340Z,11.82
2024-01-26T11:30:40.876Z,14.70
2024-01-26T11:33:18.750Z,15.15
2024-01-26T11:35:48.704Z,13.13
2024-01-26T11:38:20.171Z,16.63
2024-01-26T11:40:50.870Z,13.95
2024-01-26T11:43:20.100Z,14.25
2024-01-26T11:45:49.510Z,15.85
2024-01-26T11:48:18.250Z,10.88
2024-01-26T11:50:48.782Z,12.15
2024-01-26T11:53:19.900Z,10.00
2024-01-26T11:55:51.022Z,13.85
2024-01-26T11:58:19.856Z,18.33
2024-01-26T12:00:48.473Z,14.63
2024-01-26T12:03:21.858Z,10.65
2024-01-26T12:05:52.569Z,8.48
2024-01-26T12:08:24.513Z,12.23
2024-01-26T12:10:55.382Z,7.60
2024-01-26T12:13:24.434Z,10.52
2024-01-26T12:15:53.795Z,6.78
2024-01-26T12:18:22.396Z,12.02
2024-01-26T12:20:52.311Z,12.93
2024-01-26T12:23:23.282Z,11.48
2024-01-26T12:25:54.312Z,9.02
2024-01-26T12:28:23.526Z,8.85
2024-01-26T12:30:53.251Z,7.93
2024-01-26T12:33:25.747Z,8.60
2024-01-26T12:35:54.703Z,9.43
2024-01-26T12:38:23.240Z,9.25
2024-01-26T12:40:53.699Z,10.68
2024-01-26T12:43:22.344Z,5.80
2024-01-26T12:45:51.386Z,7.88
2024-01-26T12:48:21.102Z,5.43
2024-01-26T12:50:50.983Z,8.32
2024-01-26T12:53:22.308Z,6.10
2024-01-26T12:55:51.089Z,8.05
2024-01-26T12:58:21.363Z,5.57
2024-01-26T13:00:50.472Z,11.98
2024-01-26T13:03:19.736Z,9.00
2024-01-26T13:05:50.682Z,8.98
2024-01-26T13:08:19.391Z,6.45
2024-01-26T13:10:47.989Z,9.63
2024-01-26T13:13:16.660Z,8.07
2024-01-26T13:15:46.628Z,9.77
2024-01-26T13:18:24.286Z,13.07
2024-01-26T13:20:56.257Z,8.98
2024-01-26T13:23:24.990Z,11.48
2024-01-26T13:25:55.647Z,6.47
2024-01-26T13:28:25.485Z,11.07
2024-01-26T13:30:55.783Z,9.68
2024-01-26T13:33:24.757Z,15.80
2024-01-26T13:35:53.550Z,8.73
2024-01-26T13:38:22.068Z,7.40
2024-01-26T13:40:52.103Z,8.18
2024-01-26T13:43:20.987Z,7.60
2024-01-26T13:45:49.758Z,8.85
2024-01-26T13:48:19.892Z,10.02
2024-01-26T13:50:50.191Z,10.20
2024-01-26T13:53:22.119Z,9.90
2024-01-26T13:55:51.185Z,10.25
2024-01-26T13:58:20.121Z,8.85
2024-01-26T14:00:48.701Z,12.30
2024-01-26T14:03:20.275Z,6.15
2024-01-26T14:05:49.539Z,7.15
2024-01-26T14:08:18.300Z,7.70
2024-01-26T14:10:46.834Z,7.63
2024-01-26T14:13:15.455Z,5.97
2024-01-26T14:15:44.305Z,8.95
2024-01-26T14:18:12.964Z,7.03
2024-01-26T14:20:44.138Z,10.00
2024-01-26T14:23:13.361Z,11.32
2024-01-26T14:25:42.264Z,5.88
2024-01-26T14:28:10.987Z,8.55
2024-01-26T14:30:39.653Z,6.10
2024-01-26T14:33:08.872Z,8.00
2024-01-26T14:35:38.179Z,9.43
2024-01-26T14:38:09.711Z,14.18
2024-01-26T14:40:39.745Z,11.25
2024-01-26T14:43:10.583Z,12.77
2024-01-26T14:45:39.401Z,10.05
2024-01-26T14:48:09.881Z,7.28
2024-01-26T14:50:38.832Z,7.53
2024-01-26T14:53:10.602Z,8.13
2024-01-26T14:55:39.315Z,11.40
2024-01-26T14:58:08.016Z,8.65
2024-01-26T15:00:37.262Z,14.98
2024-01-26T15:03:06.385Z,8.55
2024-01-26T15:05:34.940Z,6.90
2024-01-26T15:08:03.444Z,11.02
2024-01-26T15:10:33.246Z,11.40
2024-01-26T15:13:02.349Z,7.05
2024-01-26T15:15:30.877Z,6.50
2024-01-26T15:17:59.537Z,23.40
2024-01-26T15:20:28.206Z,7.07
2024-01-26T15:22:56.716Z,8.20
2024-01-26T15:25:25.276Z,6.95
2024-01-26T15:27:56.055Z,6.22
2024-01-26T15:30:24.816Z,9.80
2024-01-26T15:32:53.361Z,9.20
2024-01-26T15:35:22.097Z,7.35
2024-01-26T15:37:50.631Z,7.43
2024-01-26T15:40:20.586Z,8.02
2024-01-26T15:42:49.088Z,6.65
2024-01-26T15:45:18.942Z,7.25
2024-01-26T15:47:47.881Z,8.77
2024-01-26T15:50:16.558Z,8.25
2024-01-26T15:52:46.771Z,6.10
2024-01-26T15:55:16.945Z,6.03
2024-01-26T15:57:45.599Z,8.52
2024-01-26T16:00:16.395Z,7.57
2024-01-26T16:02:46.924Z,10.80
2024-01-26T16:05:15.850Z,12.00
2024-01-26T16:07:44.430Z,6.88
2024-01-26T16:10:13.036Z,8.02
2024-01-26T16:12:41.800Z,11.18
2024-01-26T16:15:11.996Z,9.75
2024-01-26T16:17:40.945Z,10.15
2024-01-26T16:20:12.923Z,8.15
2024-01-26T16:22:42.471Z,9.25
2024-01-26T16:25:11.212Z,11.52
2024-01-26T16:27:39.833Z,9.77
2024-01-26T16:30:12.298Z,12.18
2024-01-26T16:32:40.980Z,14.07
2024-01-26T16:35:11.730Z,13.70
2024-01-26T16:37:40.170Z,10.45
2024-01-26T16:40:10.780Z,8.50
2024-01-26T16:42:39.334Z,10.60
2024-01-26T16:45:09.290Z,6.55
2024-01-26T16:47:37.962Z,6.80
2024-01-26T16:50:08.638Z,5.75
2024-01-26T16:52:39.162Z,6.95
2024-01-26T16:55:09.236Z,4.72
2024-01-26T16:57:37.655Z,6.70
2024-01-26T17:00:07.676Z,8.95
2024-01-26T17:02:36.245Z,8.50
2024-01-26T17:05:04.877Z,5.88
2024-01-26T17:07:33.422Z,10.75
2024-01-26T17:10:03.346Z,7.88
2024-01-26T17:12:31.935Z,8.25
2024-01-26T17:15:00.411Z,5.18
2024-01-26T17:17:28.918Z,9.32
2024-01-26T17:19:58.257Z,7.82
2024-01-26T17:22:26.892Z,7.07
2024-01-26T17:24:55.332Z,7.32
2024-01-26T17:27:25.336Z,5.32
2024-01-26T17:29:53.796Z,6.05
2024-01-26T17:32:22.257Z,7.63
2024-01-26T17:34:51.025Z,7.63
2024-01-26T17:37:19.873Z,7.97
2024-01-26T17:39:59.273Z,7.53
2024-01-26T17:42:32.881Z,4.53
2024-01-26T17:45:01.454Z,8.35
2024-01-26T17:47:29.998Z,6.00
2024-01-26T17:49:59.892Z,5.57
2024-01-26T17:52:29.728Z,5.22
2024-01-26T17:54:58.230Z,6.47
2024-01-26T17:57:27.963Z,7.80
2024-01-26T17:59:57.794Z,5.93
2024-01-26T18:02:28.045Z,4.30
2024-01-26T18:04:56.834Z,4.93
2024-01-26T18:07:25.249Z,4.22
2024-01-26T18:09:54.153Z,3.63
2024-01-26T18:12:22.768Z,3.90
2024-01-26T18:14:53.399Z,4.45
2024-01-26T18:17:23.346Z,3.28
2024-01-26T18:19:51.921Z,4.00
2024-01-26T18:22:20.419Z,3.85
2024-01-26T18:24:49.137Z,4.65
2024-01-26T18:27:17.676Z,6.47
2024-01-26T18:29:46.378Z,5.25
2024-01-26T18:32:15.361Z,4.93
2024-01-26T18:34:45.340Z,8.80
2024-01-26T18:37:15.557Z,5.68
2024-01-26T18:39:44.941Z,9.18
2024-01-26T18:42:13.439Z,4.88
2024-01-26T18:44:42.142Z,14.25
2024-01-26T18:47:10.880Z,12.60
2024-01-26T18:49:41.690Z,5.72
2024-01-26T18:52:12.268Z,8.77
2024-01-26T18:54:41.181Z,6.55
2024-01-26T18:57:10.179Z,8.02
2024-01-26T18:59:40.512Z,3.85
2024-01-26T19:02:10.159Z,3.47
2024-01-26T19:04:40.656Z,3.45
2024-01-26T19:07:13.114Z,4.85
2024-01-26T19:09:43.636Z,3.75
2024-01-26T19:12:13.353Z,5.30
2024-01-26T19:14:42.960Z,3.47
2024-01-26T19:17:12.251Z,2.97
2024-01-26T19:19:45.583Z,4.20
2024-01-26T19:22:17.925Z,3.70
2024-01-26T19:24:46.396Z,2.97
2024-01-26T19:27:15.298Z,2.75
2024-01-26T19:29:44.347Z,2.67
2024-01-26T19:32:14.853Z,2.50
2024-01-26T19:34:45.030Z,2.70
2024-01-26T19:37:15.454Z,1.92
2024-01-26T19:39:45.866Z,2.05
2024-01-26T19:42:14.605Z,2.75
2024-01-26T19:44:44.748Z,1.95
2024-01-26T19:47:13.985Z,1.75
2024-01-26T19:49:44.752Z,2.22
2024-01-26T19:52:15.597Z,2.22
2024-01-26T19:54:44.932Z,1.85
2024-01-26T19:57:14.189Z,2.17
2024-01-26T19:59:42.790Z,3.55
2024-01-26T20:02:11.583Z,2.83
2024-01-26T20:04:40.066Z,2.50
2024-01-26T20:07:09.998Z,3.25
2024-01-26T20:09:40.180Z,5.90
2024-01-26T20:12:09.271Z,2.58
2024-01-26T20:14:37.679Z,2.40
2024-01-26T20:17:09.087Z,6.88
2024-01-26T20:19:39.847Z,3.83
2024-01-26T20:22:09.010Z,1.50
2024-01-26T20:24:37.615Z,1.58
2024-01-26T20:27:07.752Z,2.50
2024-01-26T20:29:37.627Z,1.98
2024-01-26T20:32:07.975Z,1.67
2024-01-26T20:34:37.186Z,1.70
2024-01-26T20:37:07.009Z,1.50
2024-01-26T20:39:36.118Z,1.80
2024-01-26T20:42:07.364Z,2.40
2024-01-26T20:44:37.415Z,1.67
2024-01-26T20:47:07.607Z,1.77
2024-01-26T20:49:37.574Z,1.55
2024-01-26T20:52:07.305Z,3.38
2024-01-26T20:54:36.723Z,3.42
2024-01-26T20:57:08.578Z,1.80
2024-01-26T20:59:38.434Z,1.65
2024-01-26T21:02:07.774Z,2.00
2024-01-26T21:04:36.916Z,2.92
2024-01-26T21:07:06.442Z,1.35
2024-01-26T21:09:35.510Z,4.93
2024-01-26T21:12:04.280Z,2.60
2024-01-26T21:14:34.725Z,4.18
2024-01-26T21:17:05.715Z,1.17
2024-01-26T21:19:34.693Z,1.83
2024-01-26T21:22:04.723Z,1.08
2024-01-26T21:24:33.377Z,1.50
2024-01-26T21:27:01.902Z,0.70
2024-01-26T21:29:30.433Z,1.17
2024-01-26T21:32:00.181Z,1.10
2024-01-26T21:34:28.960Z,1.58
2024-01-26T21:36:57.460Z,2.78
2024-01-26T21:39:26.124Z,1.30
2024-01-26T21:41:54.728Z,1.10
2024-01-26T21:44:23.650Z,4.93
2024-01-26T21:46:52.149Z,2.38
2024-01-26T21:49:25.184Z,1.40
2024-01-26T21:51:58.136Z,1.10
2024-01-26T21:54:27.329Z,1.13
2024-01-26T21:56:56.380Z,2.67
2024-01-26T21:59:24.994Z,1.67
2024-01-26T22:01:54.952Z,2.42
2024-01-26T22:04:25.161Z,1.52
2024-01-26T22:06:54.114Z,1.73
2024-01-26T22:09:23.499Z,2.47
2024-01-26T22:11:52.236Z,2.35
2024-01-26T22:14:20.700Z,3.42
2024-01-26T22:16:49.377Z,4.13
2024-01-26T22:19:18.927Z,4.32
2024-01-26T22:21:49.963Z,3.85
2024-01-26T22:24:18.496Z,1.33
2024-01-26T22:26:49.962Z,1.15
2024-01-26T22:29:18.655Z,2.65
2024-01-26T22:31:47.270Z,3.20
2024-01-26T22:34:15.812Z,2.17
2024-01-26T22:36:44.637Z,2.70
2024-01-26T22:39:14.665Z,4.53
2024-01-26T22:41:43.164Z,1.55
2024-01-26T22:44:11.613Z,2.97
2024-01-26T22:46:43.562Z,2.33
2024-01-26T22:49:12.278Z,4.32
2024-01-26T22:51:40.769Z,2.30
2024-01-26T22:54:09.228Z,3.20
2024-01-26T22:56:39.107Z,7.80
2024-01-26T22:59:07.734Z,2.38
2024-01-26T23:01:36.387Z,2.95
2024-01-26T23:04:06.684Z,2.33
2024-01-26T23:06:36.281Z,5.50
2024-01-26T23:09:05.859Z,2.00
2024-01-26T23:11:35.027Z,1.55
2024-01-26T23:14:04.807Z,5.03
2024-01-26T23:16:33.305Z,1.60
2024-01-26T23:19:01.823Z,3.22
2024-01-26T23:21:30.303Z,2.83
2024-01-26T23:23:58.739Z,5.65
2024-01-26T23:26:27.421Z,3.63
2024-01-26T23:28:55.853Z,2.13
2024-01-26T23:31:25.743Z,2.10
2024-01-26T23:33:54.362Z,2.33
2024-01-26T23:36:22.951Z,3.30
2024-01-26T23:38:52.446Z,2.10
2024-01-26T23:41:21.004Z,3.58
2024-01-26T23:43:49.609Z,2.92
2024-01-26T23:46:18.135Z,1.70
2024-01-26T23:48:48.059Z,3.22
2024-01-26T23:51:16.888Z,3.05
2024-01-26T23:53:45.287Z,7.55
2024-01-26T23:56:13.704Z,5.50
2024-01-26T23:58:42.113Z,3.60
